createdAt,value
2018-12-17T00:00:48.940Z,31.40
2018-12-17T00:03:18.075Z,32.75
2018-12-17T00:05:51.936Z,31.83
2018-12-17T00:08:20.408Z,32.00
2018-12-17T00:10:51.164Z,32.90
2018-12-17T00:13:19.922Z,32.13
2018-12-17T00:15:54.827Z,32.20
2018-12-17T00:18:30.724Z,30.97
2018-12-17T00:21:01.570Z,31.43
2018-12-17T00:23:49.442Z,32.03
2018-12-17T00:26:36.173Z,31.45
2018-12-17T00:29:05.537Z,30.92
2018-12-17T00:31:54.938Z,30.40
2018-12-17T00:34:28.028Z,32.65
2018-12-17T00:36:57.896Z,32.28
2018-12-17T00:39:26.383Z,33.08
2018-12-17T00:41:57.159Z,32.10
2018-12-17T00:44:27.497Z,31.95
2018-12-17T00:47:12.694Z,33.05
2018-12-17T00:49:44.583Z,31.37
2018-12-17T00:55:07.727Z,31.23
2018-12-17T00:57:36.422Z,32.17
2018-12-17T01:00:07.578Z,32.58
2018-12-17T01:02:40.633Z,30.77
2018-12-17T01:05:09.114Z,32.13
2018-12-17T01:07:38.217Z,31.37
2018-12-17T01:10:07.763Z,32.20
2018-12-17T01:12:55.468Z,31.62
2018-12-17T01:15:23.990Z,32.38
2018-12-17T01:18:01.694Z,32.08
2018-12-17T01:20:30.160Z,33.38
2018-12-17T01:22:58.579Z,31.27
2018-12-17T01:25:27.775Z,33.08
2018-12-17T01:27:57.427Z,32.53
2018-12-17T01:30:31.177Z,32.65
2018-12-17T01:33:01.363Z,31.45
2018-12-17T01:38:26.047Z,33.10
2018-12-17T01:40:56.150Z,31.85
2018-12-17T01:43:24.831Z,32.00
2018-12-17T01:45:53.304Z,31.97
2018-12-17T01:48:21.731Z,30.23
2018-12-17T01:50:50.325Z,30.12
2018-12-17T01:53:19.086Z,31.25
2018-12-17T01:55:47.601Z,31.42
2018-12-17T01:58:16.775Z,29.85
2018-12-17T02:00:45.278Z,29.60
2018-12-17T02:03:19.068Z,29.05
2018-12-17T02:05:48.200Z,30.68
2018-12-17T02:08:17.353Z,27.93
2018-12-17T02:10:46.246Z,29.27
2018-12-17T02:13:19.867Z,29.98
2018-12-17T02:15:48.366Z,28.40
2018-12-17T02:18:18.733Z,27.77
2018-12-17T02:20:48.494Z,25.90
2018-12-17T02:23:18.186Z,25.40
2018-12-17T02:25:51.875Z,26.00
2018-12-17T02:28:35.962Z,24.52
2018-12-17T02:31:02.382Z,23.70
2018-12-17T02:33:31.624Z,23.87
2018-12-17T02:36:00.654Z,24.12
2018-12-17T02:38:29.404Z,25.25
2018-12-17T02:40:58.661Z,24.12
2018-12-17T02:46:24.280Z,24.70
2018-12-17T02:48:52.806Z,24.37
2018-12-17T02:51:25.604Z,23.95
2018-12-17T02:53:58.725Z,24.15
2018-12-17T02:56:30.514Z,23.55
2018-12-17T02:58:59.031Z,25.60
2018-12-17T03:01:31.416Z,23.90
2018-12-17T03:04:13.454Z,24.35
2018-12-17T03:06:53.292Z,24.20
2018-12-17T03:09:34.460Z,23.85
2018-12-17T03:12:09.775Z,23.05
2018-12-17T03:14:38.480Z,22.62
2018-12-17T03:17:06.920Z,22.60
2018-12-17T03:19:53.544Z,23.50
2018-12-17T03:22:24.806Z,23.40
2018-12-17T03:24:58.727Z,23.00
2018-12-17T03:27:32.928Z,21.95
2018-12-17T03:30:04.377Z,21.95
2018-12-17T03:32:40.377Z,21.77
2018-12-17T03:35:08.846Z,24.55
2018-12-17T03:37:43.030Z,27.87
2018-12-17T03:43:05.505Z,26.95
2018-12-17T03:45:34.767Z,26.80
2018-12-17T03:48:03.206Z,26.00
2018-12-17T03:50:31.643Z,28.10
2018-12-17T03:53:00.149Z,28.10
2018-12-17T03:55:33.969Z,28.77
2018-12-17T03:58:02.456Z,27.17
2018-12-17T04:00:32.812Z,24.10
2018-12-17T04:03:06.716Z,22.22
2018-12-17T04:05:52.454Z,18.67
2018-12-17T04:08:20.959Z,18.92
2018-12-17T04:10:49.662Z,20.45
2018-12-17T04:13:18.103Z,19.60
2018-12-17T04:15:46.825Z,19.82
2018-12-17T04:18:16.487Z,19.50
2018-12-17T04:20:44.994Z,18.70
2018-12-17T04:23:13.509Z,19.00
2018-12-17T04:25:47.331Z,19.37
2018-12-17T04:28:21.302Z,18.20
2018-12-17T04:30:54.979Z,17.82
2018-12-17T04:33:26.277Z,18.65
2018-12-17T04:35:54.939Z,17.70
2018-12-17T04:38:23.549Z,17.92
2018-12-17T04:40:52.039Z,17.07
2018-12-17T04:43:22.566Z,17.85
2018-12-17T04:45:55.918Z,17.48
2018-12-17T04:48:24.648Z,17.52
2018-12-17T04:50:58.499Z,16.77
2018-12-17T04:53:27.683Z,18.42
2018-12-17T04:55:56.128Z,17.75
2018-12-17T04:58:28.036Z,18.77
2018-12-17T05:01:01.811Z,17.40
2018-12-17T05:03:37.041Z,17.00
2018-12-17T05:06:05.427Z,17.17
2018-12-17T05:12:03.153Z,17.85
2018-12-17T05:14:40.290Z,17.52
2018-12-17T05:17:10.176Z,39.05
2018-12-17T05:19:39.670Z,20.23
2018-12-17T05:22:18.929Z,18.12
2018-12-17T05:24:50.409Z,17.95
2018-12-17T05:27:41.624Z,17.55
2018-12-17T05:30:28.718Z,17.25
2018-12-17T05:32:57.527Z,16.75
2018-12-17T05:35:26.887Z,17.90
2018-12-17T05:38:00.723Z,17.42
2018-12-17T05:40:30.681Z,17.30
2018-12-17T05:43:04.472Z,18.02
2018-12-17T05:45:33.701Z,17.35
2018-12-17T05:48:04.912Z,17.32
2018-12-17T05:50:35.264Z,16.35
2018-12-17T05:53:03.720Z,17.20
2018-12-17T05:58:28.288Z,17.37
2018-12-17T06:00:57.358Z,16.95
2018-12-17T06:03:44.052Z,17.77
2018-12-17T06:06:12.540Z,17.17
2018-12-17T06:08:41.244Z,16.90
2018-12-17T06:11:10.156Z,17.85
2018-12-17T06:13:38.623Z,17.17
2018-12-17T06:16:13.264Z,17.62
2018-12-17T06:18:41.863Z,16.80
2018-12-17T06:21:16.989Z,17.65
2018-12-17T06:23:49.635Z,17.23
2018-12-17T06:26:18.581Z,17.62
2018-12-17T06:28:48.604Z,18.60
2018-12-17T06:31:22.399Z,18.40
2018-12-17T06:33:52.571Z,18.52
2018-12-17T06:36:43.506Z,18.12
2018-12-17T06:39:12.704Z,18.65
2018-12-17T06:41:41.159Z,17.73
2018-12-17T06:44:09.620Z,17.90
2018-12-17T06:46:45.723Z,18.98
2018-12-17T06:49:15.053Z,19.75
2018-12-17T06:51:45.217Z,19.42
2018-12-17T06:54:14.927Z,30.32
2018-12-17T06:56:43.412Z,27.25
2018-12-17T06:59:11.827Z,26.95
2018-12-17T07:01:40.712Z,23.57
2018-12-17T07:04:09.213Z,21.25
2018-12-17T07:06:38.405Z,20.60
2018-12-17T07:09:07.865Z,18.67
2018-12-17T07:11:36.387Z,18.17
2018-12-17T07:14:05.082Z,18.13
2018-12-17T07:16:35.149Z,18.87
2018-12-17T07:19:07.739Z,19.57
2018-12-17T07:21:37.943Z,18.97
2018-12-17T07:24:08.472Z,18.87
2018-12-17T07:26:38.224Z,18.90
2018-12-17T07:29:07.392Z,19.07
2018-12-17T07:31:58.389Z,19.90
2018-12-17T07:34:27.692Z,20.67
2018-12-17T07:36:56.998Z,20.23
2018-12-17T07:39:29.352Z,20.20
2018-12-17T07:44:52.480Z,22.30
2018-12-17T07:47:20.939Z,22.98
2018-12-17T07:49:49.389Z,22.83
2018-12-17T07:52:18.321Z,23.67
2018-12-17T07:54:47.947Z,23.67
2018-12-17T07:57:21.855Z,23.50
2018-12-17T08:02:59.891Z,27.23
2018-12-17T08:05:28.394Z,30.07
2018-12-17T08:08:00.422Z,43.10
2018-12-17T08:10:28.830Z,31.80
2018-12-17T08:13:04.796Z,31.07
2018-12-17T08:15:40.372Z,31.40
2018-12-17T08:18:20.483Z,31.13
2018-12-17T08:20:49.788Z,32.97
2018-12-17T08:23:18.489Z,31.23
2018-12-17T08:25:46.963Z,29.20
2018-12-17T08:28:15.428Z,30.93
2018-12-17T08:30:43.858Z,28.40
2018-12-17T08:33:12.610Z,27.87
2018-12-17T08:35:42.777Z,28.43
2018-12-17T08:38:11.296Z,26.70
2018-12-17T08:40:39.787Z,25.33
2018-12-17T08:43:08.242Z,24.27
2018-12-17T08:45:36.687Z,25.57
2018-12-17T08:48:05.202Z,27.10
2018-12-17T08:50:33.642Z,25.23
2018-12-17T08:53:02.085Z,27.00
2018-12-17T08:55:30.749Z,27.27
2018-12-17T08:57:59.428Z,26.83
2018-12-17T09:00:27.877Z,26.30
2018-12-17T09:02:56.331Z,27.13
2018-12-17T09:05:27.755Z,27.63
2018-12-17T09:07:56.255Z,26.80
2018-12-17T09:10:24.755Z,26.60
2018-12-17T09:12:53.176Z,25.47
2018-12-17T09:15:21.717Z,24.70
2018-12-17T09:17:50.415Z,23.67
2018-12-17T09:20:18.915Z,23.10
2018-12-17T09:22:47.359Z,23.10
2018-12-17T09:25:15.901Z,23.83
2018-12-17T09:27:44.336Z,23.43
2018-12-17T09:30:18.321Z,24.47
2018-12-17T09:32:43.260Z,24.23
2018-12-17T09:35:11.746Z,23.33
2018-12-17T09:37:40.224Z,22.63
2018-12-17T09:40:08.775Z,22.87
2018-12-17T09:42:37.228Z,22.33
2018-12-17T09:45:06.866Z,21.60
2018-12-17T09:47:35.330Z,21.30
2018-12-17T09:50:05.082Z,21.10
2018-12-17T09:52:33.613Z,21.23
2018-12-17T09:55:02.457Z,20.70
2018-12-17T09:57:31.358Z,19.97
2018-12-17T10:00:00.227Z,20.03
2018-12-17T10:02:29.145Z,21.83
2018-12-17T10:04:57.861Z,20.83
2018-12-17T10:07:30.473Z,21.47
2018-12-17T10:09:56.915Z,21.53
2018-12-17T10:12:25.344Z,21.50
2018-12-17T10:14:53.830Z,21.47
2018-12-17T10:17:22.341Z,19.83
2018-12-17T10:19:50.852Z,18.93
2018-12-17T10:22:19.374Z,19.13
2018-12-17T10:24:47.797Z,19.80
2018-12-17T10:27:16.499Z,19.40
2018-12-17T10:29:45.135Z,17.73
2018-12-17T10:32:13.554Z,18.43
2018-12-17T10:34:42.154Z,19.60
2018-12-17T10:37:11.385Z,19.30
2018-12-17T10:39:39.828Z,19.30
2018-12-17T10:42:08.281Z,19.80
2018-12-17T10:44:36.737Z,20.87
2018-12-17T10:47:05.222Z,19.63
2018-12-17T10:49:33.700Z,19.57
2018-12-17T10:52:02.163Z,18.63
2018-12-17T10:54:31.311Z,17.87
2018-12-17T10:56:59.987Z,18.33
2018-12-17T10:59:28.505Z,19.37
2018-12-17T11:02:03.832Z,18.57
2018-12-17T11:04:34.350Z,19.13
2018-12-17T11:07:02.934Z,18.97
2018-12-17T11:09:31.341Z,18.70
2018-12-17T11:11:59.780Z,18.60
2018-12-17T11:14:28.224Z,19.20
2018-12-17T11:16:56.652Z,18.53
2018-12-17T11:19:25.142Z,17.80
2018-12-17T11:21:53.589Z,18.87
2018-12-17T11:24:22.048Z,19.13
2018-12-17T11:26:50.461Z,18.53
2018-12-17T11:29:18.903Z,18.50
2018-12-17T11:31:47.349Z,19.97
2018-12-17T11:34:15.827Z,19.03
2018-12-17T11:36:44.256Z,19.13
2018-12-17T11:39:12.684Z,17.30
2018-12-17T11:41:41.166Z,19.10
2018-12-17T11:44:09.612Z,20.80
2018-12-17T11:46:38.047Z,19.03
2018-12-17T11:49:06.530Z,20.17
2018-12-17T11:51:34.980Z,18.33
2018-12-17T11:54:03.419Z,19.73
2018-12-17T11:56:49.636Z,18.63
2018-12-17T11:59:18.064Z,19.37
2018-12-17T12:01:46.883Z,19.50
2018-12-17T12:04:15.356Z,19.20
2018-12-17T12:06:43.791Z,19.80
2018-12-17T12:09:14.249Z,18.63
2018-12-17T12:11:42.758Z,19.83
2018-12-17T12:14:11.207Z,19.33
2018-12-17T12:16:39.620Z,19.43
2018-12-17T12:19:08.098Z,18.53
2018-12-17T12:21:36.542Z,18.43
2018-12-17T12:24:05.004Z,17.83
2018-12-17T12:26:33.508Z,19.03
2018-12-17T12:29:01.973Z,18.63
2018-12-17T12:31:30.404Z,18.17
2018-12-17T12:33:58.857Z,17.73
2018-12-17T12:36:27.308Z,19.13
2018-12-17T12:38:55.728Z,18.40
2018-12-17T12:41:24.180Z,19.13
2018-12-17T12:43:52.626Z,19.00
2018-12-17T12:46:21.070Z,18.90
2018-12-17T12:48:49.544Z,20.00
2018-12-17T12:51:18.052Z,19.73
2018-12-17T12:53:46.480Z,19.20
2018-12-17T12:56:15.043Z,19.13
2018-12-17T12:58:43.464Z,18.77
2018-12-17T13:01:11.892Z,18.20
2018-12-17T13:03:40.360Z,18.43
2018-12-17T13:06:08.793Z,17.63
2018-12-17T13:08:37.376Z,17.87
2018-12-17T13:11:05.859Z,18.23
2018-12-17T13:13:34.324Z,18.20
2018-12-17T13:16:02.752Z,18.30
2018-12-17T13:18:31.232Z,18.70
2018-12-17T13:20:59.666Z,18.17
2018-12-17T13:23:28.136Z,18.87
2018-12-17T13:25:57.559Z,19.00
2018-12-17T13:28:25.991Z,18.37
2018-12-17T13:30:54.420Z,19.13
2018-12-17T13:33:22.921Z,18.07
2018-12-17T13:35:51.372Z,18.77
2018-12-17T13:38:19.842Z,18.33
2018-12-17T13:40:48.284Z,18.70
2018-12-17T13:43:16.728Z,19.67
2018-12-17T13:45:45.187Z,18.70
2018-12-17T13:48:14.169Z,18.13
2018-12-17T13:50:42.716Z,18.77
2018-12-17T13:53:16.644Z,19.00
2018-12-17T13:55:45.100Z,19.63
2018-12-17T13:58:13.524Z,18.20
2018-12-17T14:00:42.011Z,18.93
2018-12-17T14:03:10.464Z,18.67
2018-12-17T14:05:39.552Z,19.23
2018-12-17T14:08:08.016Z,18.50
2018-12-17T14:10:42.208Z,19.63
2018-12-17T14:13:10.700Z,20.03
2018-12-17T14:15:44.713Z,19.00
2018-12-17T14:18:18.785Z,18.77
2018-12-17T14:20:52.844Z,19.17
2018-12-17T14:23:21.321Z,19.83
2018-12-17T14:25:49.756Z,19.77
2018-12-17T14:28:18.349Z,19.50
2018-12-17T14:30:46.813Z,18.43
2018-12-17T14:33:15.245Z,19.50
2018-12-17T14:35:49.164Z,19.23
2018-12-17T14:38:17.601Z,19.20
2018-12-17T14:40:46.024Z,19.67
2018-12-17T14:43:14.507Z,19.40
2018-12-17T14:45:42.948Z,18.90
2018-12-17T14:48:11.433Z,19.13
2018-12-17T14:50:40.021Z,19.13
2018-12-17T14:53:08.480Z,19.00
2018-12-17T14:55:36.989Z,20.37
2018-12-17T14:58:05.627Z,21.23
2018-12-17T15:00:34.055Z,20.50
2018-12-17T15:03:02.504Z,20.67
2018-12-17T15:05:31.812Z,20.83
2018-12-17T15:08:00.332Z,21.20
2018-12-17T15:10:28.789Z,20.57
2018-12-17T15:12:57.244Z,20.87
2018-12-17T15:15:25.689Z,19.80
2018-12-17T15:17:54.148Z,20.50
2018-12-17T15:20:22.645Z,22.57
2018-12-17T15:22:51.093Z,23.50
2018-12-17T15:25:19.552Z,23.63
2018-12-17T15:27:48.063Z,24.33
2018-12-17T15:30:16.520Z,22.87
2018-12-17T15:32:44.940Z,21.63
2018-12-17T15:35:13.398Z,21.33
2018-12-17T15:37:41.859Z,22.30
2018-12-17T15:40:10.324Z,23.67
2018-12-17T15:42:41.001Z,24.53
2018-12-17T15:45:09.288Z,24.60
2018-12-17T15:47:37.746Z,24.63
2018-12-17T15:50:06.472Z,24.43
2018-12-17T15:52:34.940Z,23.93
2018-12-17T15:55:03.794Z,23.20
2018-12-17T15:57:32.329Z,23.27
2018-12-17T16:00:00.891Z,23.60
2018-12-17T16:02:29.734Z,24.50
2018-12-17T16:04:58.251Z,22.87
2018-12-17T16:07:27.367Z,24.57
2018-12-17T16:09:55.888Z,24.33
2018-12-17T16:12:24.412Z,28.53
2018-12-17T16:14:52.877Z,29.30
2018-12-17T16:17:21.411Z,31.43
2018-12-17T16:19:49.925Z,29.37
2018-12-17T16:22:18.527Z,29.80
2018-12-17T16:24:48.440Z,26.50
2018-12-17T16:27:19.408Z,28.70
2018-12-17T16:29:51.705Z,26.50
2018-12-17T16:32:20.246Z,26.73
2018-12-17T16:34:48.801Z,28.17
2018-12-17T16:37:18.444Z,29.40
2018-12-17T16:39:47.028Z,29.13
2018-12-17T16:42:15.899Z,31.77
2018-12-17T16:44:44.696Z,31.37
2018-12-17T16:47:13.203Z,30.87
2018-12-17T16:49:42.009Z,29.33
2018-12-17T16:52:10.541Z,36.27
2018-12-17T16:54:40.122Z,30.20
2018-12-17T16:57:09.247Z,28.10
2018-12-17T16:59:37.825Z,28.57
2018-12-17T17:02:06.454Z,28.53
2018-12-17T17:04:35.062Z,27.73
2018-12-17T17:07:03.636Z,28.30
2018-12-17T17:09:32.515Z,29.13
2018-12-17T17:12:01.153Z,28.20
2018-12-17T17:14:29.763Z,29.20
2018-12-17T17:16:58.376Z,31.87
2018-12-17T17:19:26.938Z,32.07
2018-12-17T17:21:55.487Z,32.00
2018-12-17T17:24:24.105Z,30.10
2018-12-17T17:26:53.281Z,29.30
2018-12-17T17:29:21.796Z,30.50
2018-12-17T17:31:50.360Z,32.27
2018-12-17T17:34:19.008Z,33.27
2018-12-17T17:36:47.594Z,32.03
2018-12-17T17:39:16.131Z,30.83
2018-12-17T17:41:44.886Z,31.90
2018-12-17T17:44:13.448Z,32.40
2018-12-17T17:46:41.986Z,32.97
2018-12-17T17:49:10.588Z,32.17
2018-12-17T17:51:39.173Z,39.93
2018-12-17T17:54:07.732Z,39.83
2018-12-17T17:56:36.277Z,43.63
2018-12-17T17:59:05.410Z,33.57
2018-12-17T18:01:33.997Z,33.67
2018-12-17T18:04:03.062Z,33.53
2018-12-17T18:06:31.844Z,30.20
2018-12-17T18:09:00.436Z,31.87
2018-12-17T18:11:29.195Z,29.87
2018-12-17T18:13:57.750Z,30.10
2018-12-17T18:16:26.324Z,28.53
2018-12-17T18:18:54.884Z,31.00
2018-12-17T18:21:23.425Z,33.00
2018-12-17T18:23:52.133Z,33.90
2018-12-17T18:26:20.692Z,31.53
2018-12-17T18:28:49.329Z,31.33
2018-12-17T18:31:17.873Z,34.37
2018-12-17T18:33:46.423Z,33.73
2018-12-17T18:36:15.000Z,34.83
2018-12-17T18:38:43.707Z,35.13
2018-12-17T18:41:12.761Z,35.80
2018-12-17T18:43:42.771Z,39.20
2018-12-17T18:46:11.424Z,36.50
2018-12-17T18:48:40.178Z,34.30
2018-12-17T18:51:09.660Z,35.47
2018-12-17T18:53:38.284Z,35.23
2018-12-17T18:56:06.904Z,40.90
2018-12-17T18:58:35.734Z,52.93
2018-12-17T19:01:05.441Z,39.30
2018-12-17T19:03:35.068Z,36.73
2018-12-17T19:06:25.987Z,36.07
2018-12-17T19:08:57.492Z,36.47
2018-12-17T19:14:24.089Z,33.53
2018-12-17T19:16:52.712Z,33.73
2018-12-17T19:19:28.850Z,34.37
2018-12-17T19:24:52.777Z,37.90
2018-12-17T19:27:21.409Z,35.00
2018-12-17T19:32:46.886Z,33.63
2018-12-17T19:35:16.515Z,34.30
2018-12-17T19:38:05.626Z,31.47
2018-12-17T19:40:37.540Z,35.07
2018-12-17T19:43:07.246Z,36.40
2018-12-17T19:45:36.500Z,42.00
2018-12-17T19:48:05.598Z,51.93
2018-12-17T19:50:35.053Z,46.87
2018-12-17T19:53:04.167Z,45.87
2018-12-17T19:55:32.745Z,38.03
2018-12-17T19:58:01.419Z,193.50
2018-12-17T20:00:30.000Z,50.20
2018-12-17T20:03:13.750Z,45.57
2018-12-17T20:05:47.617Z,39.23
2018-12-17T20:08:18.835Z,39.20
2018-12-17T20:10:50.199Z,41.03
2018-12-17T20:13:22.626Z,37.77
2018-12-17T20:15:52.625Z,35.97
2018-12-17T20:18:22.167Z,35.57
2018-12-17T20:20:54.934Z,37.53
2018-12-17T20:23:35.435Z,37.40
2018-12-17T20:26:04.756Z,36.33
2018-12-17T20:28:35.151Z,37.00
2018-12-17T20:31:22.480Z,36.47
2018-12-17T20:33:51.771Z,36.00
2018-12-17T20:36:22.323Z,36.80
2018-12-17T20:38:56.770Z,35.87
2018-12-17T20:41:26.335Z,37.30
2018-12-17T20:43:55.890Z,34.83
2018-12-17T20:49:11.326Z,35.60
2018-12-17T20:51:40.917Z,35.60
2018-12-17T20:54:12.677Z,37.67
2018-12-17T20:56:43.631Z,38.07
2018-12-17T20:59:16.601Z,38.07
2018-12-17T21:02:03.878Z,36.83
2018-12-17T21:04:51.025Z,49.70
2018-12-17T21:07:22.861Z,51.67
2018-12-17T21:09:58.885Z,49.63
2018-12-17T21:12:29.831Z,50.08
2018-12-17T21:15:03.849Z,43.28
2018-12-17T21:17:49.741Z,47.63
2018-12-17T21:23:12.853Z,45.73
2018-12-17T21:25:41.427Z,44.33
2018-12-17T21:28:17.086Z,45.60
2018-12-17T21:30:48.906Z,46.63
2018-12-17T21:33:20.308Z,42.63
2018-12-17T21:35:51.201Z,41.77
2018-12-17T21:38:22.609Z,39.30
2018-12-17T21:40:52.886Z,41.83
2018-12-17T21:43:22.867Z,44.27
2018-12-17T21:46:11.673Z,44.10
2018-12-17T21:48:41.202Z,43.77
2018-12-17T21:51:10.069Z,40.83
2018-12-17T21:53:57.930Z,40.13
2018-12-17T21:56:32.505Z,33.87
2018-12-17T21:59:06.317Z,35.93
2018-12-17T22:01:42.804Z,39.60
2018-12-17T22:04:31.685Z,39.40
2018-12-17T22:07:00.509Z,38.35
2018-12-17T22:09:45.104Z,38.40
2018-12-17T22:12:14.865Z,37.43
2018-12-17T22:14:44.141Z,29.83
2018-12-17T22:17:17.957Z,31.33
2018-12-17T22:20:08.878Z,29.70
2018-12-17T22:22:42.724Z,31.07
2018-12-17T22:25:16.676Z,30.60
2018-12-17T22:27:50.485Z,30.90
2018-12-17T22:30:31.655Z,35.83
2018-12-17T22:33:00.117Z,34.97
2018-12-17T22:35:32.280Z,35.93
2018-12-17T22:38:06.087Z,37.27
2018-12-17T22:40:39.019Z,35.97
2018-12-17T22:43:12.880Z,34.10
2018-12-17T22:45:41.358Z,34.73
2018-12-17T22:48:28.946Z,33.20
2018-12-17T22:51:20.538Z,34.03
2018-12-17T22:53:53.895Z,31.67
2018-12-17T22:56:28.642Z,35.20
2018-12-17T22:58:57.565Z,35.00
2018-12-17T23:04:19.825Z,32.33
2018-12-17T23:06:54.259Z,33.07
2018-12-17T23:09:46.005Z,31.63
2018-12-17T23:12:32.803Z,32.87
2018-12-17T23:15:30.783Z,31.20
2018-12-17T23:18:10.304Z,28.23
2018-12-17T23:20:45.164Z,31.03
2018-12-17T23:23:16.331Z,30.60
2018-12-17T23:25:46.152Z,29.90
2018-12-17T23:28:17.097Z,29.97
2018-12-17T23:30:50.067Z,30.47
2018-12-17T23:33:19.602Z,25.90
2018-12-17T23:35:49.605Z,25.67
2018-12-17T23:41:12.233Z,26.30
2018-12-17T23:43:57.591Z,25.50
2018-12-17T23:46:26.598Z,28.25
2018-12-17T23:48:55.286Z,27.55
2018-12-17T23:51:23.751Z,26.67
2018-12-17T23:53:53.769Z,27.13
2018-12-17T23:59:16.055Z,26.33
